Terminal Aerodrome Forecast
Issued by NWS

Home | Current Version | Previous Version | Text Only | Print | Product List | Glossary On
Versions: 1 2 3 4 5 6 7 8 9 10 11 12 13 14 15 16 17 18 19 20 21
000
FTUS46 KSTO 180520
TAFSCK
TAF
KSCK 180520Z 1806/1906 15006KT 3SM BR OVC009
     FM180700 14004KT 1 1/2SM BR OVC007
     FM180900 14005KT 1/2SM FG OVC002
     FM182000 17006KT 3SM BR OVC007
     FM182300 24008KT 1 1/2SM -RA BR OVC007=

USA.gov is the U.S. government's official web portal to all federal, state and local government web resources and services.